• Join FlightAware (Why Join?)
  • Login
  • US Flag 
05:30AM EST


 

Airport Tracker/Info


-or-


 

Live Flight TrackerFlight Track Log ✈ AAY846 ✈ 11-May-2014 ✈ KPIE - KPIA

Flight Track Log - Related Links

Times and Time Zones

All times are in EDT time to prevent confusion due to time zone crossing. See the AAY846 flight status page for this flight to view local times or setup timezone preferences in your user account.

Time Position Orientation Groundspeed Altitude Reporting Facility
EDT Latitude Longitude Course Direction KTS MPH feet Rate Location/Type
08:37AM 27.9000 -82.6833 331° Northwest 141 162 800  Level Tampa TRACON
08:38AM 27.8667 -82.6833 180° South 162 186 1,900 1,920 Climbing Tampa TRACON
08:39AM 27.8167 -82.7000 196° South 216 249 3,700 1,980 Climbing Tampa TRACON
08:41AM 27.8953 -82.7869 316° Northwest 274 315 7,700 2,280 Climbing Jacksonville Center
08:42AM 27.9808 -82.7869 360° North 274 315 10,400 1,920 Climbing Jacksonville Center
08:43AM 28.4920 -83.0436 331° Northwest  Level FlightAware Approximate
08:43AM 28.0953 -82.7814 North 362 417 11,900  Level Miami Center
08:44AM 28.2036 -82.7833 359° North 383 441 14,100 2,340 Climbing Miami Center
08:45AM 28.3022 -82.7817 North 388 447 16,200 2,100 Climbing Jacksonville Center
08:46AM 28.4192 -82.8053 350° North 411 473 17,900 1,980 Climbing Jacksonville Center
08:47AM 28.5381 -82.8383 346° North 425 489 20,200 1,980 Climbing Jacksonville Center
08:48AM 28.6592 -82.8667 348° North 430 495 21,900 1,620 Climbing Jacksonville Center
08:49AM 28.7906 -82.9044 346° North 430 495 23,500 1,560 Climbing Jacksonville Center
08:50AM 28.9158 -82.9400 346° North 435 501 25,100 1,680 Climbing Jacksonville Center
08:51AM 29.0411 -82.9733 347° North 450 518 26,900 1,620 Climbing Jacksonville Center
08:52AM 29.1558 -83.0258 338° Northwest 450 518 28,400 1,440 Climbing Jacksonville Center
08:53AM 29.2664 -83.0972 331° Northwest 450 518 29,800 1,380 Climbing Jacksonville Center
08:54AM 29.3747 -83.1667 331° Northwest 445 512 31,200 1,080 Climbing Jacksonville Center
08:55AM 29.4789 -83.2361 330° Northwest 445 512 32,000 360 Climbing Jacksonville Center
08:56AM 29.5872 -83.3058 331° Northwest 450 518 32,000  Level Jacksonville Center
08:57AM 29.6956 -83.3756 331° Northwest 444 511 32,000  Level Jacksonville Center
08:58AM 29.8019 -83.4431 331° Northwest 439 505 32,000  Level Jacksonville Center
08:59AM 29.9081 -83.5108 331° Northwest 439 505 32,000  Level Jacksonville Center
09:00AM 30.0119 -83.5786 331° Northwest 439 505 32,000  Level Jacksonville Center
09:01AM 30.1161 -83.6467 331° Northwest 439 505 32,000  Level Jacksonville Center
09:02AM 30.2222 -83.7122 332° Northwest 439 505 32,000  Level Jacksonville Center
09:03AM 30.3281 -83.7831 330° Northwest 439 505 32,000  Level Jacksonville Center
09:04AM 30.4342 -83.8514 331° Northwest 439 505 32,000  Level Jacksonville Center
09:05AM 30.5422 -83.9225 330° Northwest 439 505 32,000  Level Jacksonville Center
09:06AM 30.6314 -83.9839 329° Northwest 439 505 32,000  Level Jacksonville Center
09:07AM 30.7394 -84.0528 331° Northwest 439 505 32,000  Level Jacksonville Center
09:08AM 30.8453 -84.1242 330° Northwest 439 505 32,000  Level Jacksonville Center
09:09AM 30.9511 -84.1933 331° Northwest 439 505 32,000  Level Jacksonville Center
09:10AM 31.0672 -84.2703 330° Northwest 439 505 32,000  Level Jacksonville Center
09:11AM 31.1708 -84.3397 330° Northwest 439 505 32,000 180 Level Jacksonville Center
09:13AM 31.3828 -84.4817 330° Northwest 438 504 32,700 420 Climbing Atlanta Center
09:14AM 31.4867 -84.5503 331° Northwest 438 504 33,500 600 Climbing Atlanta Center
09:15AM 31.5886 -84.6214 329° Northwest 438 504 34,000 240 Climbing Atlanta Center
09:16AM 31.6906 -84.6906 330° Northwest 427 491 34,000  Level Atlanta Center
09:17AM 31.7947 -84.7597 331° Northwest 427 491 34,000  Level Atlanta Center
09:18AM 31.9050 -84.8192 335° Northwest 427 491 34,000  Level Atlanta Center
09:19AM 32.0214 -84.8619 343° North 427 491 34,000  Level Atlanta Center
09:20AM 32.1403 -84.8972 346° North 432 497 34,000  Level Atlanta Center
09:21AM 32.2525 -84.9378 343° North 432 497 34,000  Level Atlanta Center
09:22AM 32.3714 -84.9733 346° North 432 497 34,000  Level Atlanta Center
09:23AM 32.4900 -85.0117 345° North 432 497 34,000  Level Atlanta Center
09:24AM 32.6003 -85.0497 344° North 432 497 34,000  Level Atlanta Center
09:25AM 32.7169 -85.0906 344° North 432 497 34,000  Level Atlanta Center
09:26AM 32.8375 -85.1317 344° North 439 505 34,000  Level Atlanta Center
09:27AM 32.9519 -85.1700 344° North 439 505 34,000  Level Atlanta Center
09:28AM 33.0686 -85.2164 342° North 434 499 34,000  Level Atlanta Center
09:29AM 33.1828 -85.2675 339° North 434 499 34,000  Level Atlanta Center
09:30AM 33.2931 -85.3136 341° North 434 499 34,000  Level Atlanta Center
09:31AM 33.4050 -85.3700 337° Northwest 434 499 34,000  Level Atlanta Center
09:32AM 33.5297 -85.4294 338° Northwest 436 502 34,000  Level Atlanta Center
09:33AM 33.6417 -85.4836 338° Northwest 431 496 34,000  Level Atlanta Center
09:34AM 33.7519 -85.5303 341° North 431 496 34,000  Level Atlanta Center
09:35AM 33.8617 -85.5872 337° Northwest 431 496 34,000  Level Atlanta Center
09:36AM 33.9758 -85.6419 338° Northwest 431 496 34,000  Level Atlanta Center
09:37AM 34.0858 -85.6892 340° North 431 496 34,000  Level Atlanta Center
09:38AM 34.1856 -85.7339 340° North 426 490 34,000  Level Atlanta Center
09:39AM 34.2953 -85.7864 338° Northwest 426 490 34,000  Level Atlanta Center
09:40AM 34.4053 -85.8389 339° North 426 490 34,000  Level Atlanta Center
09:41AM 34.5192 -85.8942 338° Northwest 432 497 34,000  Level Atlanta Center
09:42AM 34.6311 -85.9447 340° North 432 497 34,000  Level Atlanta Center
09:43AM 34.7386 -85.9978 338° Northwest 432 497 34,000  Level Atlanta Center
09:44AM 34.8486 -86.0508 338° Northwest 432 497 34,000  Level Atlanta Center
09:45AM 34.9664 -86.1119 337° Northwest 432 497 34,000  Level Atlanta Center
09:46AM 35.0556 -86.1522 340° North 427 491 34,000  Level Atlanta Center
09:47AM 35.2428 -86.2433 338° Northwest 425 489 34,000  Level Memphis Center
09:48AM 35.3539 -86.2967 339° North 425 489 34,000  Level Memphis Center
09:49AM 35.4628 -86.3519 338° Northwest 425 489 34,000  Level Memphis Center
09:50AM 35.5733 -86.4064 338° Northwest 424 488 34,000  Level Memphis Center
09:51AM 35.6828 -86.4614 338° Northwest 424 488 34,000  Level Memphis Center
09:52AM 35.7919 -86.5144 338° Northwest 421 484 34,000  Level Memphis Center
09:53AM 35.8978 -86.5761 335° Northwest 420 483 34,000  Level Memphis Center
09:54AM 36.0025 -86.6406 334° Northwest 417 480 34,000  Level Memphis Center
09:55AM 36.1075 -86.7036 334° Northwest 417 480 34,000  Level Memphis Center
09:56AM 36.2117 -86.7664 334° Northwest 416 479 34,000  Level Memphis Center
09:58AM 36.3200 -86.8336 333° Northwest 416 479 34,000  Level Memphis Center
09:59AM 36.4342 -86.9008 335° Northwest 417 480 34,000  Level Memphis Center
10:00AM 36.5364 -86.9650 333° Northwest 415 478 34,000  Level Memphis Center
10:01AM 36.6383 -87.0283 334° Northwest 409 471 34,000  Level Memphis Center
10:02AM 36.7397 -87.0919 333° Northwest 407 468 34,000  Level Memphis Center
10:03AM 36.8428 -87.1567 333° Northwest 407 468 34,000  Level Memphis Center
10:04AM 36.9458 -87.2217 333° Northwest 411 473 34,000  Level Memphis Center
10:05AM 37.0483 -87.2861 333° Northwest 409 471 34,000  Level Memphis Center
10:06AM 37.1697 -87.3528 336° Northwest 408 470 34,000  Level Memphis Center
10:07AM 37.2808 -87.3956 343° North 410 472 34,000  Level Memphis Center
10:08AM 37.3903 -87.4411 342° North 409 471 34,000  Level Memphis Center
10:09AM 37.5000 -87.4867 342° North 410 472 34,000  Level Memphis Center
10:10AM 37.6103 -87.5311 342° North 410 472 34,000  Level Memphis Center
10:11AM 37.7197 -87.5769 342° North 410 472 34,000  Level Memphis Center
10:12AM 37.8286 -87.6228 342° North 410 472 34,000  Level Memphis Center
10:13AM 37.9392 -87.6675 342° North 410 472 34,000  Level Memphis Center
10:14AM 38.0861 -87.7256 343° North 412 474 34,000  Level Indianapolis Center
10:15AM 38.1917 -87.7861 336° Northwest 412 474 34,000  Level Indianapolis Center
10:16AM 38.2894 -87.8589 330° Northwest 407 468 34,000  Level Indianapolis Center
10:17AM 38.4081 -87.9461 330° Northwest 407 468 34,000  Level Indianapolis Center
10:18AM 38.5053 -88.0197 329° Northwest 406 467 34,000  Level Indianapolis Center
10:19AM 38.6039 -88.0925 330° Northwest 406 467 34,000  Level Indianapolis Center
10:20AM 38.7008 -88.1650 330° Northwest 406 467 34,000  Level Indianapolis Center
10:21AM 38.7983 -88.2389 329° Northwest 406 467 34,000  Level Indianapolis Center
10:22AM 38.8947 -88.3100 330° Northwest 401 461 34,000 -360 Level Indianapolis Center
10:24AM 38.9911 -88.3850 329° Northwest 400 460 33,300 -1,260 Descending Indianapolis Center
10:25AM 39.0883 -88.4603 329° Northwest 403 464 31,500 -1,860 Descending Indianapolis Center
10:26AM 39.1908 -88.5367 330° Northwest 414 476 29,600 -1,980 Descending Indianapolis Center
10:27AM 39.2944 -88.6150 330° Northwest 424 488 27,500 -2,220 Descending Indianapolis Center
10:28AM 39.4197 -88.7111 329° Northwest 431 496 25,100 -1,740 Descending Indianapolis Center
10:29AM 39.5206 -88.7900 329° Northwest 427 491 24,000 -540 Descending Indianapolis Center
10:30AM 39.6061 -88.8556 329° Northwest 417 480 24,000 -420 Level Indianapolis Center
10:31AM 39.7461 -88.9653 329° Northwest 414 476 23,100 -1,260 Descending Kansas City Center
10:32AM 39.8425 -89.0414 329° Northwest 411 473 21,000 -2,100 Descending Kansas City Center
10:33AM 39.9364 -89.1158 329° Northwest 400 460 18,900 -2,280 Descending Kansas City Center
10:34AM 40.0469 -89.2000 330° Northwest 391 450 16,400 -2,280 Descending Kansas City Center
10:35AM 40.1361 -89.2703 329° Northwest 380 437 14,300 -1,980 Descending Kansas City Center
10:36AM 40.2086 -89.3128 336° Northwest 365 420 12,600 -1,560 Descending Chicago Center
10:37AM 40.3000 -89.3606 338° Northwest 357 411 11,300 -1,500 Descending Chicago Center
10:38AM 40.3956 -89.4119 338° Northwest 318 366 9,600 -2,160 Descending Chicago Center
10:39AM 40.4706 -89.4539 337° Northwest 298 343 6,900 -2,520 Descending Chicago Center
10:40AM 40.5428 -89.4903 339° North 286 329 4,500 -2,220 Descending Chicago Center
10:41AM 40.6144 -89.5236 341° North 280 322 2,400 -1,080 Descending Chicago Center
10:42AM 40.6736 -89.5508 341° North 244 281 2,400 -60 Level Chicago Center
10:43AM 40.7117 -89.5903 322° Northwest 198 228 2,300 -420 Descending Chicago Center
10:44AM 40.7092 -89.6372 266° West 155 178 1,600 -780 Descending Chicago Center
10:45AM 40.6744 -89.6722 217° Southwest 140 161 800 -840 Descending Chicago Center